Time;durP1;ratioP1;P1;durP2;ratioP2;P2;SDS_P1;SDS_P2;PMS_P1;PMS_P2;Temp;Humidity;BMP_temperature;BMP_pressure;BME280_temperature;BME280_humidity;BME280_pressure;Samples;Min_cycle;Max_cycle;Signal;HPM_P1;HPM_P2
2023/07/22 00:01:48;;;;;;;9.00;3.40;;;;;;;23.99;100.00;94684.03;4970391;28;20031;-94
2023/07/22 00:04:13;;;;;;;4.13;3.63;;;;;;;24.02;100.00;94685.34;4972710;28;20034;-88
2023/07/22 00:06:39;;;;;;;6.65;3.30;;;;;;;23.98;100.00;94687.75;4952997;28;20027;-95
2023/07/22 00:09:05;;;;;;;3.92;3.53;;;;;;;24.02;100.00;94701.22;4971215;28;20035;-88
2023/07/22 00:11:30;;;;;;;7.85;4.13;;;;;;;23.88;100.00;94697.50;4968712;28;20077;-90
2023/07/22 00:13:56;;;;;;;5.03;3.03;;;;;;;23.95;100.00;94709.41;4954585;28;20031;-87
2023/07/22 00:16:21;;;;;;;11.20;3.00;;;;;;;23.79;100.00;94705.13;4971752;28;20196;-87
2023/07/22 00:18:47;;;;;;;4.65;3.95;;;;;;;23.90;100.00;94714.69;4971302;28;20094;-92
2023/07/22 00:21:13;;;;;;;12.20;3.78;;;;;;;23.90;100.00;94719.19;4969937;28;20058;-90
2023/07/22 00:23:39;;;;;;;5.53;3.50;;;;;;;23.80;100.00;94722.59;4970758;28;20121;-92
2023/07/22 00:26:04;;;;;;;5.45;3.90;;;;;;;23.70;100.00;94698.72;4970107;28;20528;-91
2023/07/22 00:28:30;;;;;;;3.03;2.72;;;;;;;23.88;100.00;94714.16;4953795;28;20031;-92
2023/07/22 00:30:57;;;;;;;5.00;3.20;;;;;;;23.91;100.00;94720.78;4970201;28;20035;-92
2023/07/22 00:33:23;;;;;;;5.35;2.90;;;;;;;23.86;100.00;94710.97;4968613;28;20030;-96
2023/07/22 00:35:52;;;;;;;7.25;3.75;;;;;;;23.72;100.00;94691.34;4952995;28;20408;-92
2023/07/22 00:38:18;;;;;;;6.38;3.60;;;;;;;23.83;100.00;94715.97;4969006;28;20033;-88
2023/07/22 00:40:44;;;;;;;6.53;3.83;;;;;;;23.58;100.00;94688.38;4969309;28;20038;-91
2023/07/22 00:43:09;;;;;;;3.83;3.17;;;;;;;23.82;100.00;94706.47;4968642;28;20027;-90
2023/07/22 00:45:35;;;;;;;6.00;3.22;;;;;;;23.67;100.00;94696.59;4968515;28;20525;-85
2023/07/22 00:48:01;;;;;;;4.32;3.67;;;;;;;23.71;100.00;94702.19;4953572;28;20046;-91
2023/07/22 00:50:26;;;;;;;5.75;3.00;;;;;;;23.75;100.00;94706.72;4968406;28;20030;-92
2023/07/22 00:52:52;;;;;;;7.03;3.53;;;;;;;23.58;100.00;94687.56;4972806;28;20069;-93
2023/07/22 00:55:18;;;;;;;5.13;3.10;;;;;;;23.82;100.00;94714.41;4953023;28;20058;-93
2023/07/22 00:57:44;;;;;;;6.05;3.20;;;;;;;23.51;100.00;94702.88;4971740;28;20125;-93
2023/07/22 01:00:12;;;;;;;5.13;3.75;;;;;;;23.33;100.00;94712.00;4969298;28;20067;-93
2023/07/22 01:02:39;;;;;;;8.95;4.25;;;;;;;23.44;100.00;94711.03;4969620;28;20030;-88
2023/07/22 01:05:05;;;;;;;4.80;3.72;;;;;;;23.53;100.00;94725.38;4971479;28;20045;-93
2023/07/22 01:07:31;;;;;;;4.93;3.60;;;;;;;23.33;100.00;94727.88;4969294;28;20427;-92
2023/07/22 01:10:00;;;;;;;4.15;3.40;;;;;;;23.25;100.00;94723.06;4970090;28;20034;-93
2023/07/22 01:12:25;;;;;;;3.97;3.30;;;;;;;23.25;100.00;94738.91;4952068;28;20034;-90
2023/07/22 01:14:52;;;;;;;4.25;3.58;;;;;;;23.21;100.00;94732.56;4969449;28;20097;-92
2023/07/22 01:17:18;;;;;;;5.40;4.07;;;;;;;23.17;100.00;94736.75;4969300;28;20104;-91
2023/07/22 01:19:44;;;;;;;6.85;4.53;;;;;;;23.17;100.00;94728.84;4968520;28;20026;-95
2023/07/22 01:22:10;;;;;;;7.57;3.80;;;;;;;23.19;100.00;94725.91;4968521;28;20109;-84
2023/07/22 01:24:37;;;;;;;7.78;3.25;;;;;;;23.12;100.00;94731.41;4968590;28;20027;-92
2023/07/22 01:27:07;;;;;;;9.75;3.92;;;;;;;23.04;100.00;94721.34;4952343;28;20058;-93
2023/07/22 01:29:33;;;;;;;8.68;3.70;;;;;;;23.12;100.00;94725.38;4969075;28;20094;-90
2023/07/22 01:31:59;;;;;;;4.85;3.55;;;;;;;22.92;100.00;94702.22;4952385;28;20031;-92
2023/07/22 01:34:24;;;;;;;5.45;3.80;;;;;;;22.85;100.00;94699.81;4967311;28;20039;-90
2023/07/22 01:36:50;;;;;;;4.53;3.67;;;;;;;22.86;100.00;94697.97;4969981;28;20035;-92
2023/07/22 01:39:16;;;;;;;6.53;3.67;;;;;;;22.87;100.00;94704.81;4951909;28;20038;-90
2023/07/22 01:41:43;;;;;;;4.93;4.43;;;;;;;22.71;100.00;94713.66;4968604;28;20109;-91
2023/07/22 01:44:09;;;;;;;4.90;3.88;;;;;;;22.74;100.00;94715.81;4951805;28;20457;-90
2023/07/22 01:46:35;;;;;;;4.68;4.22;;;;;;;22.76;100.00;94706.59;4951840;28;20071;-91
2023/07/22 01:49:03;;;;;;;4.15;3.42;;;;;;;22.65;100.00;94718.09;4968974;28;20030;-95
2023/07/22 01:51:29;;;;;;;5.45;3.88;;;;;;;22.68;100.00;94699.13;4967335;28;20424;-91
2023/07/22 01:53:56;;;;;;;4.57;3.75;;;;;;;22.69;100.00;94692.00;4968896;28;20039;-90
2023/07/22 01:56:22;;;;;;;8.52;3.95;;;;;;;22.67;100.00;94709.94;4951629;28;20027;-86
2023/07/22 01:58:48;;;;;;;6.30;3.35;;;;;;;22.44;100.00;94693.34;4968094;28;20094;-87
2023/07/22 02:01:15;;;;;;;6.05;4.28;;;;;;;22.24;100.00;94714.28;4971406;28;20105;-94
2023/07/22 02:03:41;;;;;;;6.60;3.83;;;;;;;22.31;100.00;94712.25;4971596;28;20029;-88
2023/07/22 02:06:06;;;;;;;6.43;4.25;;;;;;;22.10;100.00;94713.06;4971965;28;20027;-93
2023/07/22 02:08:32;;;;;;;6.75;4.70;;;;;;;21.88;100.00;94709.63;4971473;28;20097;-91
2023/07/22 02:11:06;;;;;;;6.68;3.92;;;;;;;21.86;100.00;94724.91;4973278;28;20113;-91
2023/07/22 02:13:32;;;;;;;6.57;4.45;;;;;;;21.86;100.00;94725.69;4970882;28;20026;-92
2023/07/22 02:15:57;;;;;;;5.45;4.32;;;;;;;21.99;100.00;94727.97;4972212;28;20022;-90
2023/07/22 02:18:23;;;;;;;6.85;4.15;;;;;;;22.31;100.00;94722.78;4971250;28;20109;-93
2023/07/22 02:20:48;;;;;;;9.75;4.43;;;;;;;21.94;100.00;94721.84;4972894;28;20019;-90
2023/07/22 02:23:14;;;;;;;8.45;4.03;;;;;;;22.65;100.00;94712.00;4955097;28;20082;-92
2023/07/22 02:25:39;;;;;;;4.95;3.80;;;;;;;22.48;100.00;94705.00;4971418;28;20034;-91
2023/07/22 02:28:06;;;;;;;6.65;3.95;;;;;;;22.34;100.00;94719.66;4973130;28;20031;-93
2023/07/22 02:30:34;;;;;;;5.57;4.10;;;;;;;22.35;100.00;94729.16;4971077;28;20031;-91
2023/07/22 02:33:01;;;;;;;10.70;3.97;;;;;;;22.42;100.00;94721.84;4971635;28;20508;-91
2023/07/22 02:35:27;;;;;;;5.78;4.25;;;;;;;22.31;100.00;94724.63;4970623;28;20023;-91
2023/07/22 02:37:53;;;;;;;5.45;3.28;;;;;;;22.22;100.00;94718.97;4971078;28;20022;-91
2023/07/22 02:40:18;;;;;;;5.18;4.47;;;;;;;22.19;100.00;94719.47;4970977;28;20463;-91
2023/07/22 02:42:43;;;;;;;5.68;4.03;;;;;;;22.11;100.00;94735.78;4972444;28;20146;-89
2023/07/22 02:45:09;;;;;;;7.25;4.32;;;;;;;21.94;100.00;94725.28;4954804;28;20070;-86
2023/07/22 02:47:35;;;;;;;6.00;3.92;;;;;;;21.97;100.00;94718.72;4971072;28;20026;-92
2023/07/22 02:50:01;;;;;;;5.15;4.38;;;;;;;21.90;100.00;94723.38;4971621;28;20027;-90
2023/07/22 02:52:26;;;;;;;5.22;3.80;;;;;;;21.92;100.00;94747.69;4952935;28;20030;-92
2023/07/22 02:55:06;;;;;;;6.90;3.97;;;;;;;21.98;100.00;94734.31;4972367;28;20025;-93
2023/07/22 02:57:31;;;;;;;6.68;4.30;;;;;;;21.92;100.00;94739.78;4971744;28;20051;-92
2023/07/22 02:59:57;;;;;;;5.50;4.25;;;;;;;21.94;100.00;94743.75;4971649;28;20508;-93
2023/07/22 03:02:22;;;;;;;8.52;4.38;;;;;;;21.83;100.00;94749.13;4954929;28;20023;-91
2023/07/22 03:04:47;;;;;;;7.15;3.70;;;;;;;21.70;100.00;94749.50;4970515;28;20045;-91
2023/07/22 03:07:13;;;;;;;4.22;3.80;;;;;;;21.40;100.00;94755.94;4972170;28;20045;-91
2023/07/22 03:09:38;;;;;;;8.30;4.75;;;;;;;21.39;100.00;94761.44;4971145;28;20090;-90
2023/07/22 03:12:04;;;;;;;7.53;5.10;;;;;;;21.44;100.00;94769.44;4970861;28;20114;-90
2023/07/22 03:14:37;;;;;;;6.00;4.55;;;;;;;21.49;100.00;94775.56;4971230;28;20086;-91
2023/07/22 03:17:03;;;;;;;5.65;4.75;;;;;;;21.37;100.00;94784.63;4969923;28;20037;-91
2023/07/22 03:19:29;;;;;;;5.93;4.88;;;;;;;21.40;100.00;94779.66;4970489;28;20085;-92
2023/07/22 03:21:54;;;;;;;8.27;4.85;;;;;;;21.30;100.00;94778.72;4953813;28;20125;-93
2023/07/22 03:24:20;;;;;;;5.15;4.07;;;;;;;21.40;100.00;94771.75;4970439;28;20027;-91
2023/07/22 03:26:45;;;;;;;10.27;4.13;;;;;;;21.52;100.00;94774.28;4970176;28;20069;-91
2023/07/22 03:29:11;;;;;;;5.72;4.45;;;;;;;21.46;100.00;94770.78;4971265;28;20038;-92
2023/07/22 03:31:36;;;;;;;4.68;4.10;;;;;;;21.48;100.00;94768.69;4953506;28;20023;-93
2023/07/22 03:34:02;;;;;;;6.85;4.72;;;;;;;21.62;100.00;94774.44;4971689;28;20095;-91
2023/07/22 03:36:28;;;;;;;5.50;4.20;;;;;;;21.63;100.00;94781.31;4971135;28;20023;-91
2023/07/22 03:38:53;;;;;;;6.07;4.68;;;;;;;21.71;100.00;94782.69;4970520;28;20033;-91
2023/07/22 03:41:19;;;;;;;4.65;4.15;;;;;;;21.89;100.00;94766.63;4970292;28;20122;-91
2023/07/22 03:43:44;;;;;;;6.55;4.78;;;;;;;22.04;100.00;94772.91;4953851;28;20027;-88
2023/07/22 03:46:09;;;;;;;6.57;3.90;;;;;;;22.21;100.00;94778.09;4970008;28;20398;-91
2023/07/22 03:48:35;;;;;;;4.85;4.05;;;;;;;22.38;100.00;94773.53;4970725;28;20424;-89
2023/07/22 03:51:00;;;;;;;6.80;4.05;;;;;;;22.59;100.00;94777.97;4970581;28;20054;-86
2023/07/22 03:53:26;;;;;;;5.63;3.38;;;;;;;23.12;100.00;94770.28;4970553;28;20081;-90
2023/07/22 03:55:51;;;;;;;5.28;3.85;;;;;;;23.59;100.00;94748.16;4971228;28;20022;-90
2023/07/22 03:58:17;;;;;;;7.00;3.88;;;;;;;23.88;100.00;94743.28;4970432;28;20407;-87
2023/07/22 04:00:42;;;;;;;8.35;3.88;;;;;;;23.98;100.00;94753.13;4971033;28;20030;-89
2023/07/22 04:03:08;;;;;;;3.97;3.45;;;;;;;24.61;100.00;94741.41;4971061;28;20019;-89
2023/07/22 04:05:33;;;;;;;5.72;3.70;;;;;;;25.37;100.00;94742.22;4969043;28;20038;-89
2023/07/22 04:07:58;;;;;;;5.22;3.42;;;;;;;25.63;100.00;94743.00;4971952;28;20096;-89
2023/07/22 04:10:24;;;;;;;6.00;3.30;;;;;;;25.66;100.00;94743.25;4969638;28;20539;-88
2023/07/22 04:12:49;;;;;;;5.57;3.33;;;;;;;26.20;100.00;94738.03;4969779;28;20093;-89
2023/07/22 04:15:17;;;;;;;4.47;3.08;;;;;;;26.23;100.00;94741.22;4968812;28;20553;-89
2023/07/22 04:17:42;;;;;;;3.60;3.30;;;;;;;26.45;100.00;94752.25;4953377;28;20054;-88
2023/07/22 04:20:09;;;;;;;4.00;3.30;;;;;;;26.65;100.00;94746.84;4969419;28;20065;-88
2023/07/22 04:22:34;;;;;;;6.35;3.13;;;;;;;27.10;99.83;94754.50;4969727;28;20038;-89
2023/07/22 04:24:59;;;;;;;3.35;2.92;;;;;;;27.41;94.81;94756.91;4968727;28;20092;-86
2023/07/22 04:27:26;;;;;;;3.53;3.22;;;;;;;27.61;92.89;94735.44;4967985;28;20034;-88
2023/07/22 04:29:52;;;;;;;9.57;3.50;;;;;;;28.19;91.22;94752.91;4969853;28;20045;-88
2023/07/22 04:32:17;;;;;;;4.05;2.90;;;;;;;28.37;88.25;94726.56;4969390;28;20456;-88
2023/07/22 04:34:43;;;;;;;3.53;3.22;;;;;;;28.13;91.20;94750.56;4969138;28;20023;-89
2023/07/22 04:37:08;;;;;;;3.45;3.13;;;;;;;29.46;87.25;94746.53;4969929;28;20432;-89
2023/07/22 04:39:34;;;;;;;9.43;3.85;;;;;;;29.24;85.72;94749.03;4969827;28;20022;-88
2023/07/22 04:41:59;;;;;;;3.97;3.10;;;;;;;29.22;86.32;94756.50;4968932;28;20138;-89
2023/07/22 04:44:25;;;;;;;3.47;3.15;;;;;;;29.91;82.31;94755.63;4969411;28;20771;-90
2023/07/22 04:46:51;;;;;;;4.90;2.90;;;;;;;29.74;83.17;94753.50;4970198;28;20047;-90
2023/07/22 04:49:17;;;;;;;7.47;3.47;;;;;;;30.52;78.38;94749.06;4968200;28;20030;-90
2023/07/22 04:51:45;;;;;;;4.30;2.50;;;;;;;30.28;78.83;94744.72;4969478;28;20041;-90
2023/07/22 04:54:11;;;;;;;7.70;2.47;;;;;;;30.93;75.85;94744.38;4969540;28;20029;-94
2023/07/22 04:56:36;;;;;;;6.78;3.13;;;;;;;31.06;74.71;94740.09;4968700;28;20027;-90
2023/07/22 04:59:02;;;;;;;2.95;2.67;;;;;;;31.40;76.73;94751.06;4969162;28;20034;-91
2023/07/22 05:01:28;;;;;;;4.25;2.50;;;;;;;31.49;75.41;94749.22;4968607;28;20759;-90
2023/07/22 05:03:55;;;;;;;3.17;2.78;;;;;;;32.85;69.34;94741.97;4970395;28;20026;-91
2023/07/22 05:06:20;;;;;;;4.60;2.95;;;;;;;32.32;70.77;94734.16;4968593;28;20027;-92
2023/07/22 05:08:46;;;;;;;4.45;2.97;;;;;;;32.50;70.89;94730.38;4969326;28;20508;-90
2023/07/22 05:11:11;;;;;;;6.23;2.50;;;;;;;32.76;69.26;94739.28;4969487;28;20505;-91
2023/07/22 05:13:37;;;;;;;4.83;3.33;;;;;;;32.25;69.98;94741.84;4969060;28;20031;-94
2023/07/22 05:16:03;;;;;;;7.03;2.67;;;;;;;33.83;64.40;94734.75;4969433;28;20054;-90
2023/07/22 05:18:28;;;;;;;9.32;3.13;;;;;;;33.84;64.51;94736.31;4969586;28;20469;-88
2023/07/22 05:20:53;;;;;;;3.27;2.57;;;;;;;33.85;65.35;94751.34;4968846;28;20034;-91
2023/07/22 05:23:19;;;;;;;5.17;2.67;;;;;;;34.51;62.48;94757.06;4970118;28;20114;-92
2023/07/22 05:25:50;;;;;;;3.30;2.33;;;;;;;34.77;60.95;94760.41;4952941;28;20480;-91
2023/07/22 05:28:16;;;;;;;9.23;2.88;;;;;;;33.75;65.25;94758.94;4968698;28;20043;-88
2023/07/22 05:30:41;;;;;;;3.17;2.65;;;;;;;35.03;60.39;94770.19;4969746;28;20348;-92
2023/07/22 05:33:07;;;;;;;7.43;2.60;;;;;;;34.23;59.91;94737.13;4968058;28;20764;-90
2023/07/22 05:35:32;;;;;;;3.63;2.57;;;;;;;35.28;58.71;94770.00;4968032;28;20114;-92
2023/07/22 05:37:57;;;;;;;4.47;2.80;;;;;;;36.12;56.66;94779.50;4968797;28;20369;-91
2023/07/22 05:40:23;;;;;;;6.70;3.00;;;;;;;36.28;56.78;94768.81;4952557;28;20031;-93
2023/07/22 05:42:48;;;;;;;4.60;2.50;;;;;;;37.16;54.17;94760.72;4968463;28;20053;-92
2023/07/22 05:45:16;;;;;;;3.77;2.67;;;;;;;36.33;55.37;94755.09;4969133;28;20057;-91
2023/07/22 05:47:41;;;;;;;5.88;2.95;;;;;;;36.83;53.11;94760.88;4968508;28;20496;-91
2023/07/22 05:50:07;;;;;;;4.37;3.00;;;;;;;37.00;52.96;94764.47;4969138;28;20027;-89
2023/07/22 05:52:32;;;;;;;4.47;2.83;;;;;;;37.15;51.16;94772.66;4969382;28;20377;-93
2023/07/22 05:54:58;;;;;;;5.10;2.67;;;;;;;37.38;51.33;94770.19;4968362;28;20034;-93
2023/07/22 05:57:23;;;;;;;4.60;2.63;;;;;;;36.57;53.76;94765.13;4970300;28;20030;-94
2023/07/22 05:59:49;;;;;;;4.17;2.77;;;;;;;37.24;53.21;94753.59;4967590;28;20065;-93
2023/07/22 06:02:14;;;;;;;3.10;2.80;;;;;;;36.91;52.94;94768.09;4967902;28;20089;-92
2023/07/22 06:04:40;;;;;;;3.43;2.87;;;;;;;37.87;50.58;94766.16;4952274;28;20484;-92
2023/07/22 06:07:05;;;;;;;4.33;2.53;;;;;;;37.48;51.72;94773.22;4968811;28;20035;-91
2023/07/22 06:09:31;;;;;;;4.50;2.63;;;;;;;37.36;50.18;94762.44;4969831;28;20473;-96
2023/07/22 06:11:56;;;;;;;3.97;2.57;;;;;;;37.57;51.43;94756.84;4967177;28;20042;-93
2023/07/22 06:14:21;;;;;;;4.00;2.67;;;;;;;37.25;51.38;94774.06;4969577;28;20026;-91
2023/07/22 06:16:47;;;;;;;2.70;2.50;;;;;;;37.97;50.47;94773.78;4967578;28;20027;-90
2023/07/22 06:19:12;;;;;;;3.20;2.50;;;;;;;36.77;52.10;94770.34;4970046;28;20053;-87
2023/07/22 06:21:38;;;;;;;5.13;2.70;;;;;;;37.25;51.41;94793.78;4967550;28;20494;-88
2023/07/22 06:24:03;;;;;;;3.22;2.95;;;;;;;37.31;49.61;94780.84;4967702;28;20026;-86
2023/07/22 06:26:29;;;;;;;4.72;3.38;;;;;;;37.34;50.29;94788.25;4967546;28;20026;-89
2023/07/22 06:28:54;;;;;;;6.35;3.08;;;;;;;35.86;52.70;94787.06;4966882;28;20031;-89
2023/07/22 06:31:20;;;;;;;6.75;3.50;;;;;;;35.63;54.72;94802.06;4969105;28;20027;-91
2023/07/22 06:33:45;;;;;;;5.65;3.25;;;;;;;35.02;58.59;94798.25;4967320;28;20527;-90
2023/07/22 06:36:11;;;;;;;5.93;3.50;;;;;;;34.22;62.52;94792.03;4967867;28;20026;-90
2023/07/22 06:38:36;;;;;;;10.35;3.17;;;;;;;34.83;61.67;94804.09;4951206;28;20031;-89
2023/07/22 06:41:01;;;;;;;4.82;2.58;;;;;;;34.91;60.56;94809.41;4968166;28;20035;-90
2023/07/22 06:43:27;;;;;;;5.03;2.60;;;;;;;34.56;59.34;94799.94;4967655;28;20057;-93
2023/07/22 06:45:52;;;;;;;6.93;3.03;;;;;;;34.56;58.84;94824.16;4951404;28;20539;-89
2023/07/22 06:48:18;;;;;;;4.27;3.00;;;;;;;36.57;52.64;94821.84;4973362;28;20031;-90
2023/07/22 06:50:48;;;;;;;3.20;2.53;;;;;;;38.48;48.57;94818.00;4953950;28;20509;-89
2023/07/22 06:53:14;;;;;;;7.63;2.70;;;;;;;38.62;46.54;94814.06;4971037;28;20041;-91
2023/07/22 06:55:40;;;;;;;6.50;2.88;;;;;;;37.85;48.09;94809.00;4970032;28;20037;-91
2023/07/22 06:58:05;;;;;;;5.18;3.00;;;;;;;38.17;47.90;94811.78;4970605;28;20023;-89
2023/07/22 07:00:31;;;;;;;4.88;3.22;;;;;;;38.39;47.24;94819.31;4953784;28;20062;-91
2023/07/22 07:02:56;;;;;;;4.07;2.55;;;;;;;37.84;47.29;94809.34;4972399;28;20033;-96
2023/07/22 07:05:22;;;;;;;4.70;2.90;;;;;;;36.03;53.74;94810.38;4971677;28;20027;-89
2023/07/22 07:07:49;;;;;;;5.78;3.40;;;;;;;35.71;57.74;94807.34;4953849;28;20045;-87
2023/07/22 07:10:14;;;;;;;5.87;3.53;;;;;;;35.53;58.41;94814.00;4970916;28;20113;-90
2023/07/22 07:12:39;;;;;;;3.95;3.50;;;;;;;34.98;59.29;94805.41;4953533;28;20118;-91
2023/07/22 07:15:05;;;;;;;7.10;3.42;;;;;;;34.70;60.31;94794.34;4971873;28;20031;-93
2023/07/22 07:17:31;;;;;;;5.72;4.13;;;;;;;32.73;62.58;94801.66;4970128;28;20505;-88
2023/07/22 07:19:56;;;;;;;7.93;3.63;;;;;;;31.19;71.60;94793.59;4972020;28;20029;-90
2023/07/22 07:22:22;;;;;;;7.82;4.22;;;;;;;32.87;66.11;94780.03;4970416;28;20073;-95
2023/07/22 07:24:47;;;;;;;6.78;4.35;;;;;;;32.98;66.10;94799.28;4970757;28;20058;-90
2023/07/22 07:27:13;;;;;;;6.88;3.78;;;;;;;32.88;64.31;94789.66;4971314;28;20404;-88
2023/07/22 07:29:38;;;;;;;6.93;3.97;;;;;;;33.19;66.83;94793.03;4970844;28;20026;-87
2023/07/22 07:32:04;;;;;;;8.55;4.53;;;;;;;33.44;65.88;94791.41;4954465;28;20117;-90
2023/07/22 07:34:30;;;;;;;6.70;4.85;;;;;;;33.65;63.77;94784.28;4954371;28;20049;-88
2023/07/22 07:36:55;;;;;;;5.05;4.30;;;;;;;32.92;69.37;94768.34;4971610;28;20516;-91
2023/07/22 07:39:21;;;;;;;10.02;3.88;;;;;;;32.30;68.19;94776.59;4970349;28;20500;-91
2023/07/22 07:41:46;;;;;;;8.20;4.30;;;;;;;33.24;68.02;94770.56;4973049;28;20042;-91
2023/07/22 07:44:11;;;;;;;9.35;3.92;;;;;;;33.18;65.22;94761.88;4971841;28;20031;-93
2023/07/22 07:46:37;;;;;;;6.90;3.53;;;;;;;33.06;69.48;94755.56;4954548;28;20054;-93
2023/07/22 07:49:03;;;;;;;6.43;3.22;;;;;;;33.86;65.96;94761.00;4970830;28;20038;-88
2023/07/22 07:51:30;;;;;;;7.78;3.35;;;;;;;33.14;64.46;94768.19;4969584;28;20045;-89
2023/07/22 07:53:58;;;;;;;6.40;3.70;;;;;;;32.68;65.51;94774.97;4971042;28;20023;-94
2023/07/22 07:56:23;;;;;;;6.28;3.67;;;;;;;32.93;65.23;94775.28;4957128;28;20034;-92
2023/07/22 07:58:50;;;;;;;5.78;3.60;;;;;;;33.61;63.37;94767.25;4954105;28;20037;-95
2023/07/22 08:01:16;;;;;;;10.98;4.57;;;;;;;33.09;65.91;94768.38;4969704;28;20041;-91
2023/07/22 08:03:42;;;;;;;9.00;3.45;;;;;;;32.92;64.69;94769.13;4954403;28;20480;-96
2023/07/22 08:06:08;;;;;;;6.70;3.78;;;;;;;33.20;62.58;94765.03;4954377;28;20034;-89
2023/07/22 08:08:35;;;;;;;9.52;3.85;;;;;;;31.92;64.55;94764.75;4955874;28;20023;-93
2023/07/22 08:11:08;;;;;;;6.05;3.50;;;;;;;33.08;65.68;94772.91;4972042;28;20089;-91
2023/07/22 08:13:34;;;;;;;8.15;4.65;;;;;;;33.30;64.55;94777.34;4970791;28;20164;-95
2023/07/22 08:16:04;;;;;;;13.05;4.10;;;;;;;33.48;64.03;94770.88;4971099;28;20031;-90
2023/07/22 08:18:31;;;;;;;8.23;4.28;;;;;;;33.53;62.61;94751.88;4970736;28;20034;-95
2023/07/22 08:20:56;;;;;;;6.93;3.75;;;;;;;33.88;66.71;94748.00;4954091;28;20082;-90
2023/07/22 08:23:23;;;;;;;8.43;3.58;;;;;;;34.05;64.01;94754.41;4967707;28;20432;-89
2023/07/22 08:25:49;;;;;;;9.20;3.35;;;;;;;33.86;64.43;94757.50;4968991;28;20023;-96
2023/07/22 08:28:14;;;;;;;5.60;3.53;;;;;;;32.88;63.76;94742.13;4969443;28;20027;-90
2023/07/22 08:30:40;;;;;;;7.10;4.57;;;;;;;32.47;63.99;94731.00;4969120;28;20030;-87
2023/07/22 08:33:07;;;;;;;9.85;4.70;;;;;;;32.43;65.92;94735.41;4953699;28;20038;-92
2023/07/22 08:35:34;;;;;;;6.30;3.45;;;;;;;33.09;65.01;94731.56;4952383;28;20031;-90
2023/07/22 08:38:00;;;;;;;8.32;4.38;;;;;;;32.34;65.44;94745.34;4954197;28;20037;-92
2023/07/22 08:40:25;;;;;;;13.57;5.10;;;;;;;31.98;66.67;94736.72;4952807;28;20042;-90
2023/07/22 08:42:51;;;;;;;4.55;3.90;;;;;;;32.81;65.48;94743.72;4969857;28;20030;-93
2023/07/22 08:45:17;;;;;;;6.90;3.55;;;;;;;33.12;64.13;94749.72;4953430;28;20050;-92
2023/07/22 08:47:47;;;;;;;6.07;4.00;;;;;;;33.37;63.58;94750.81;4969349;28;20046;-93
2023/07/22 08:50:15;;;;;;;7.32;3.97;;;;;;;33.80;63.68;94739.97;4969353;28;20531;-89
2023/07/22 08:52:40;;;;;;;5.95;4.18;;;;;;;33.49;64.19;94748.25;4952015;28;20031;-88
2023/07/22 08:55:06;;;;;;;14.90;4.07;;;;;;;33.29;63.08;94738.19;4970704;28;20333;-91
2023/07/22 08:57:32;;;;;;;6.40;4.43;;;;;;;34.00;60.71;94750.03;4969042;28;20039;-90
2023/07/22 08:59:59;;;;;;;4.88;3.88;;;;;;;33.70;61.21;94741.13;4968906;28;20030;-86
2023/07/22 09:02:24;;;;;;;5.68;3.83;;;;;;;33.39;62.28;94722.50;4951816;28;20521;-86
2023/07/22 09:04:50;;;;;;;7.22;4.00;;;;;;;33.99;60.29;94718.84;4967943;28;20066;-86
2023/07/22 09:07:16;;;;;;;8.88;3.67;;;;;;;32.41;64.12;94708.13;4952051;28;20035;-88
2023/07/22 09:09:43;;;;;;;6.22;3.42;;;;;;;32.98;63.57;94703.41;4967224;28;20035;-86
2023/07/22 09:12:08;;;;;;;6.28;4.15;;;;;;;32.92;62.45;94704.69;4953385;28;20503;-88
2023/07/22 09:14:34;;;;;;;7.70;4.78;;;;;;;32.52;63.78;94701.38;4952362;28;20027;-92
2023/07/22 09:17:00;;;;;;;9.00;4.00;;;;;;;33.14;65.05;94699.16;4953929;28;20030;-87
2023/07/22 09:19:26;;;;;;;12.80;4.10;;;;;;;33.52;65.26;94706.53;4967863;28;20022;-90
2023/07/22 09:21:51;;;;;;;9.90;4.53;;;;;;;32.42;68.06;94698.19;4953043;28;20039;-87
2023/07/22 09:24:25;;;;;;;5.45;3.85;;;;;;;33.03;65.73;94695.22;4967917;28;20027;-87
2023/07/22 09:26:51;;;;;;;8.77;3.72;;;;;;;34.08;64.22;94708.03;4951733;28;20023;-83
2023/07/22 09:29:16;;;;;;;8.32;3.83;;;;;;;33.81;63.27;94695.84;4969310;28;20492;-86
2023/07/22 09:31:50;;;;;;;5.15;3.83;;;;;;;33.08;63.67;94703.09;4968364;28;20030;-84
2023/07/22 09:34:16;;;;;;;6.43;3.72;;;;;;;33.31;65.88;94695.66;4968678;28;20110;-86
2023/07/22 09:36:52;;;;;;;9.18;4.38;;;;;;;33.56;64.18;94689.41;4967456;28;20537;-91
2023/07/22 09:39:18;;;;;;;6.20;4.00;;;;;;;33.77;65.02;94686.84;4968243;28;20023;-88
2023/07/22 09:41:43;;;;;;;8.85;3.90;;;;;;;33.18;65.61;94685.88;4952052;28;20118;-85
2023/07/22 09:44:12;;;;;;;10.55;4.65;;;;;;;32.40;66.84;94671.66;4968331;28;20404;-88
2023/07/22 09:46:38;;;;;;;7.82;4.57;;;;;;;32.54;67.49;94672.31;4968271;28;20051;-88
2023/07/22 09:49:05;;;;;;;6.82;4.30;;;;;;;33.09;66.00;94685.91;4967523;28;20336;-90
2023/07/22 09:51:39;;;;;;;12.40;3.90;;;;;;;33.92;66.73;94679.03;4951747;28;20042;-87
2023/07/22 09:54:04;;;;;;;10.82;4.10;;;;;;;34.25;65.12;94673.00;4950778;28;20046;-87
2023/07/22 09:56:30;;;;;;;7.85;4.07;;;;;;;32.98;67.05;94652.41;4968232;28;20031;-88
2023/07/22 09:59:03;;;;;;;8.60;4.30;;;;;;;32.86;67.23;94655.75;4951372;28;20023;-89
2023/07/22 10:01:29;;;;;;;8.25;4.78;;;;;;;33.49;67.98;94654.19;4951385;28;20034;-90
2023/07/22 10:03:56;;;;;;;12.13;4.57;;;;;;;33.13;67.60;94661.91;4952599;28;20027;-94
2023/07/22 10:06:27;;;;;;;6.97;4.07;;;;;;;32.35;68.96;94647.69;4953041;28;20034;-90
2023/07/22 10:08:55;;;;;;;8.05;4.40;;;;;;;33.27;68.00;94665.97;4968478;28;20118;-88
2023/07/22 10:11:22;;;;;;;10.23;4.10;;;;;;;33.13;68.12;94651.16;4951419;28;20039;-87
2023/07/22 10:13:48;;;;;;;10.60;4.07;;;;;;;33.10;69.70;94662.53;4968212;28;20086;-87
2023/07/22 10:16:13;;;;;;;10.20;4.20;;;;;;;33.66;68.42;94635.34;4967181;28;20027;-88
2023/07/22 10:18:41;;;;;;;10.48;4.35;;;;;;;34.28;66.10;94638.19;4967529;28;20034;-86
2023/07/22 10:21:07;;;;;;;6.97;4.38;;;;;;;34.23;65.08;94648.34;4952977;28;20066;-95
2023/07/22 10:23:32;;;;;;;7.68;4.50;;;;;;;33.72;67.87;94654.75;4954974;28;20061;-91
2023/07/22 10:25:58;;;;;;;14.77;5.65;;;;;;;34.08;67.45;94651.56;4971364;28;20038;-91
2023/07/22 10:28:24;;;;;;;12.98;4.20;;;;;;;33.68;66.58;94649.22;4955355;28;20476;-89
2023/07/22 10:30:51;;;;;;;6.35;4.47;;;;;;;33.78;66.17;94654.25;4955863;28;20030;-94
2023/07/22 10:33:17;;;;;;;7.40;4.70;;;;;;;34.09;66.62;94639.69;4970289;28;20089;-88
2023/07/22 10:35:47;;;;;;;8.45;3.92;;;;;;;34.14;64.64;94653.75;4971439;28;20121;-85
2023/07/22 10:38:14;;;;;;;12.18;4.20;;;;;;;34.08;61.79;94660.41;4971047;28;20555;-92
2023/07/22 10:40:51;;;;;;;8.33;3.83;;;;;;;34.07;63.38;94658.06;4955174;28;20027;-88
2023/07/22 10:43:18;;;;;;;10.38;4.03;;;;;;;34.46;64.67;94659.56;4955501;28;20030;-91
2023/07/22 10:45:52;;;;;;;10.55;3.80;;;;;;;34.38;63.61;94662.00;4971538;28;20045;-90
2023/07/22 10:48:18;;;;;;;6.32;3.90;;;;;;;34.30;62.65;94662.03;4971049;28;20054;-87
2023/07/22 10:50:48;;;;;;;12.70;4.15;;;;;;;34.56;61.35;94665.34;4953667;28;20505;-88
2023/07/22 10:53:25;;;;;;;9.40;3.85;;;;;;;34.33;60.76;94656.00;4954655;28;20030;-89
2023/07/22 10:56:09;;;;;;;10.10;4.60;;;;;;;34.48;60.87;94663.53;4970290;28;20049;-87
2023/07/22 10:58:43;;;;;;;7.68;4.03;;;;;;;34.90;61.83;94665.06;4970219;28;20047;-87
2023/07/22 11:01:27;;;;;;;13.18;4.35;;;;;;;34.61;59.02;94657.13;4971953;28;20139;-86
2023/07/22 11:04:17;;;;;;;15.23;4.93;;;;;;;34.93;61.46;94655.56;4970241;28;20138;-90
2023/07/22 11:06:48;;;;;;;12.70;3.88;;;;;;;34.61;58.95;94651.72;4971596;28;20415;-87
2023/07/22 11:09:29;;;;;;;15.70;4.70;;;;;;;34.91;59.45;94652.41;4969952;28;20034;-86
2023/07/22 11:11:58;;;;;;;5.82;3.85;;;;;;;34.74;58.64;94639.88;4970637;28;20110;-86
2023/07/22 11:14:29;;;;;;;8.38;4.20;;;;;;;34.90;62.16;94634.69;4970228;28;20023;-88
2023/07/22 11:16:56;;;;;;;7.82;4.57;;;;;;;34.87;58.92;94636.09;4969602;28;20027;-85
2023/07/22 11:19:23;;;;;;;12.80;4.53;;;;;;;35.19;61.58;94626.47;4969744;28;20496;-86
2023/07/22 11:21:50;;;;;;;9.45;4.97;;;;;;;35.11;60.46;94640.03;4953984;28;20485;-89
2023/07/22 11:24:16;;;;;;;9.35;4.50;;;;;;;35.09;57.78;94644.94;4969777;28;20037;-87
2023/07/22 11:26:42;;;;;;;7.75;4.78;;;;;;;35.00;55.88;94638.88;4953939;28;20058;-88